^^
Saratoga-Weather Station Historical Data
Daily Summary for March 18, 2021 Units:  English    Metric   Both
Daily Weekly Monthly Yearly Custom
  High: Low: Average:
Temperature: 74.7 °F 50 °F 59.9 °F
Dew Point: 57.6 °F 48.7 °F 53.1 °F
Humidity: 97% 48% 80%
Wind Speed: 6.9mph 0mph 0.5mph
Wind Gust: 10mph - -
Wind- - ESE
Pressure: 30 in 29.9 in -
Precipitation: 0 in    
Historical Graphs
 
 
Tabular Data for March 18, 2021
Time Temperature Dew Point Pressure Wind Wind Speed Wind Gust Humidity Rainfall Rate (Hourly) solar
00:04 54.1 °F 52.2 °F 30 in Calm     93% 0 in 0 W/m2
00:09 54 °F 52 °F 30 in Calm     93% 0 in 0 W/m2
00:15 53.8 °F 51.8 °F 30 in Calm     93% 0 in 0 W/m2
00:20 53.8 °F 51.8 °F 30 in Calm     93% 0 in 0 W/m2
00:25 53.6 °F 51.6 °F 30 in Calm     93% 0 in 0 W/m2
00:30 53.4 °F 51.4 °F 30 in Calm     93% 0 in 0 W/m2
00:35 53.4 °F 51.8 °F 30 in Calm     94% 0 in 0 W/m2
00:40 53.2 °F 51.6 °F 30 in Calm     94% 0 in 0 W/m2
00:45 53.2 °F 51.3 °F 30 in Calm     93% 0 in 0 W/m2
00:50 53.1 °F 51.4 °F 30 in Calm     94% 0 in 0 W/m2
00:55 53.1 °F 51.4 °F 30 in Calm     94% 0 in 0 W/m2
01:00 52.9 °F 51.3 °F 30 in Calm     94% 0 in 0 W/m2
01:05 52.9 °F 51.3 °F 30 in Calm     94% 0 in 0 W/m2
01:10 52.9 °F 51.3 °F 30 in Calm     94% 0 in 0 W/m2
01:15 52.7 °F 51.1 °F 30 in Calm     94% 0 in 0 W/m2
01:20 52.5 °F 50.9 °F 30 in Calm     94% 0 in 0 W/m2
01:25 52.5 °F 50.9 °F 30 in Calm     94% 0 in 0 W/m2
01:30 52.5 °F 50.9 °F 30 in Calm     94% 0 in 0 W/m2
01:35 52.5 °F 51.1 °F 30 in Calm     95% 0 in 0 W/m2
01:40 52.5 °F 51.1 °F 30 in Calm     95% 0 in 0 W/m2
01:45 52.5 °F 51.1 °F 30 in Calm     95% 0 in 0 W/m2
01:50 52.3 °F 50.9 °F 30 in Calm     95% 0 in 0 W/m2
01:55 52.3 °F 50.9 °F 30 in Calm     95% 0 in 0 W/m2
02:00 52.3 °F 50.9 °F 30 in Calm     95% 0 in 0 W/m2
02:05 52.3 °F 50.9 °F 30 in Calm     95% 0 in 0 W/m2
02:10 52.3 °F 50.9 °F 30 in Calm     95% 0 in 0 W/m2
02:15 52.3 °F 50.9 °F 30 in Calm     95% 0 in 0 W/m2
02:20 52.2 °F 50.7 °F 30 in Calm     95% 0 in 0 W/m2
02:25 52.2 °F 50.7 °F 30 in Calm     95% 0 in 0 W/m2
02:30 52.2 °F 50.7 °F 30 in Calm     95% 0 in 0 W/m2
02:35 52.2 °F 50.7 °F 30 in Calm     95% 0 in 0 W/m2
02:40 52 °F 50.5 °F 30 in Calm     95% 0 in 0 W/m2
02:45 52 °F 50.5 °F 30 in Calm     95% 0 in 0 W/m2
02:50 52 °F 50.5 °F 30 in Calm     95% 0 in 0 W/m2
02:55 51.8 °F 50.4 °F 30 in Calm     95% 0 in 0 W/m2
03:00 51.6 °F 50.2 °F 30 in Calm     95% 0 in 0 W/m2
03:05 51.6 °F 50.2 °F 30 in Calm     95% 0 in 0 W/m2
03:10 51.6 °F 50.2 °F 30 in Calm     95% 0 in 0 W/m2
03:15 51.4 °F 50 °F 30 in Calm     95% 0 in 0 W/m2
03:20 51.4 °F 50 °F 30 in Calm     95% 0 in 0 W/m2
03:25 51.4 °F 50 °F 30 in Calm     95% 0 in 0 W/m2
03:31 51.3 °F 49.8 °F 30 in Calm     95% 0 in 0 W/m2
03:36 51.3 °F 49.8 °F 30 in Calm     95% 0 in 0 W/m2
03:41 51.1 °F 49.6 °F 30 in Calm     95% 0 in 0 W/m2
03:46 51.1 °F 49.6 °F 30 in Calm     95% 0 in 0 W/m2
03:51 51.1 °F 49.6 °F 30 in Calm     95% 0 in 0 W/m2
03:56 51.1 °F 49.6 °F 30 in Calm     95% 0 in 0 W/m2
04:01 51.1 °F 50 °F 30 in Calm     96% 0 in 0 W/m2
04:06 51.1 °F 50 °F 30 in Calm     96% 0 in 0 W/m2
04:11 51.1 °F 49.6 °F 30 in Calm     95% 0 in 0 W/m2
04:16 50.9 °F 49.8 °F 30 in Calm     96% 0 in 0 W/m2
04:21 50.9 °F 49.8 °F 30 in Calm     96% 0 in 0 W/m2
04:26 50.7 °F 49.3 °F 30 in Calm     95% 0 in 0 W/m2
04:31 50.5 °F 49.1 °F 30 in Calm     95% 0 in 0 W/m2
04:36 50.5 °F 49.1 °F 30 in Calm     95% 0 in 0 W/m2
04:41 50.4 °F 49.3 °F 30 in Calm     96% 0 in 0 W/m2
04:46 50.4 °F 49.3 °F 30 in Calm     96% 0 in 0 W/m2
04:51 50.4 °F 49.3 °F 30 in Calm     96% 0 in 0 W/m2
04:56 50.4 °F 49.3 °F 30 in Calm     96% 0 in 0 W/m2
05:01 50.4 °F 49.3 °F 30 in Calm     96% 0 in 0 W/m2
05:06 50.2 °F 48.7 °F 30 in Calm     95% 0 in 0 W/m2
05:11 50.2 °F 49.1 °F 30 in Calm     96% 0 in 0 W/m2
05:16 50.2 °F 49.1 °F 30 in Calm     96% 0 in 0 W/m2
05:21 50.2 °F 49.1 °F 30 in Calm     96% 0 in 0 W/m2
05:26 50.2 °F 49.1 °F 30 in Calm     96% 0 in 0 W/m2
05:31 50.2 °F 49.1 °F 30 in Calm     96% 0 in 0 W/m2
05:36 50.4 °F 49.3 °F 30 in Calm     96% 0 in 0 W/m2
05:41 50.5 °F 49.5 °F 30 in Calm     96% 0 in 0 W/m2
05:46 50.5 °F 49.5 °F 30 in Calm     96% 0 in 0 W/m2
05:51 50.5 °F 49.5 °F 30 in Calm     96% 0 in 0 W/m2
05:56 50.5 °F 49.5 °F 30 in Calm     96% 0 in 0 W/m2
06:01 50.4 °F 49.3 °F 30 in Calm     96% 0 in 0 W/m2
06:06 50.4 °F 49.3 °F 30 in Calm     96% 0 in 0 W/m2
06:11 50.2 °F 49.1 °F 30 in Calm     96% 0 in 0 W/m2
06:16 50.2 °F 49.1 °F 30 in Calm     96% 0 in 0 W/m2
06:21 50 °F 48.9 °F 30 in Calm     96% 0 in 0 W/m2
06:26 50.2 °F 49.1 °F 30 in Calm     96% 0 in 0 W/m2
06:31 50.4 °F 49.3 °F 30 in Calm     96% 0 in 0 W/m2
06:36 50.5 °F 49.5 °F 30 in Calm     96% 0 in 0 W/m2
06:41 50.5 °F 49.6 °F 30 in Calm     97% 0 in 0 W/m2
06:46 50.7 °F 49.8 °F 30 in Calm   1 mph 97% 0 in 0 W/m2
06:51 50.7 °F 49.8 °F 30 in Calm     97% 0 in 0 W/m2
06:56 51.1 °F 50 °F 30 in Calm     96% 0 in 0 W/m2
07:01 51.1 °F 50 °F 30 in Calm     96% 0 in 0 W/m2
07:06 50.9 °F 49.8 °F 30 in Calm     96% 0 in 0 W/m2
07:11 51.1 °F 50 °F 30 in South 0.9 mph 1 mph 96% 0 in 0 W/m2
07:16 51.1 °F 50 °F 30 in Calm   1 mph 96% 0 in 0 W/m2
07:21 51.1 °F 50 °F 30 in Calm     96% 0 in 5 W/m2
07:26 50.9 °F 49.8 °F 30 in Calm     96% 0 in 7 W/m2
07:31 50.7 °F 49.6 °F 30 in Calm     96% 0 in 11 W/m2
07:37 50.5 °F 49.5 °F 30 in Calm     96% 0 in 12 W/m2
07:42 50.5 °F 49.5 °F 30 in Calm     96% 0 in 14 W/m2
07:47 50.4 °F 49.3 °F 30 in Calm     96% 0 in 16 W/m2
07:52 50.4 °F 49.3 °F 30 in Calm     96% 0 in 18 W/m2
07:57 50.4 °F 49.3 °F 30 in Calm     96% 0 in 19 W/m2
08:02 50.4 °F 49.3 °F 30 in Calm     96% 0 in 21 W/m2
08:07 50.4 °F 49.3 °F 30 in Calm     96% 0 in 21 W/m2
08:12 50.4 °F 49.3 °F 30 in Calm   1 mph 96% 0 in 23 W/m2
08:17 50.5 °F 49.5 °F 30 in Calm     96% 0 in 25 W/m2
08:22 50.7 °F 49.8 °F 30 in Calm     97% 0 in 28 W/m2
08:27 50.7 °F 49.8 °F 30 in Calm     97% 0 in 44 W/m2
08:32 51.1 °F 50.2 °F 30 in Calm     97% 0 in 105 W/m2
08:37 51.3 °F 50.4 °F 30 in Calm     97% 0 in 95 W/m2
08:42 51.4 °F 50.5 °F 30 in Calm     97% 0 in 35 W/m2
08:47 51.6 °F 50.7 °F 30 in Calm   1 mph 97% 0 in 35 W/m2
08:52 52 °F 51.1 °F 30 in Calm     97% 0 in 95 W/m2
08:57 52.2 °F 51.3 °F 30 in Calm   1 mph 97% 0 in 70 W/m2
09:02 52.3 °F 51.4 °F 30 in Calm     97% 0 in 190 W/m2
09:07 52.5 °F 51.6 °F 30 in Calm     97% 0 in 120 W/m2
09:12 52.9 °F 52 °F 30 in Calm     97% 0 in 211 W/m2
09:17 53.2 °F 52.3 °F 30 in Calm     97% 0 in 236 W/m2
09:22 53.8 °F 52.9 °F 30 in Calm     97% 0 in 248 W/m2
09:27 54 °F 53.1 °F 30 in Calm     97% 0 in 258 W/m2
09:32 54.1 °F 53.2 °F 30 in Calm     97% 0 in 272 W/m2
09:37 54.7 °F 53.8 °F 30 in Calm     97% 0 in 281 W/m2
09:42 55 °F 54.1 °F 30 in Calm     97% 0 in 297 W/m2
09:47 55.6 °F 54.7 °F 30 in SE 0.9 mph 1 mph 97% 0 in 313 W/m2
09:52 56.1 °F 55.2 °F 30 in Calm   1 mph 97% 0 in 327 W/m2
09:57 56.8 °F 55.8 °F 30 in SE 0.9 mph 2 mph 96% 0 in 338 W/m2
10:02 57.6 °F 55.8 °F 30 in Calm     94% 0 in 352 W/m2
10:07 58.3 °F 56.3 °F 30 in Calm     93% 0 in 364 W/m2
10:12 58.6 °F 55.8 °F 30 in Calm   1 mph 90% 0 in 381 W/m2
10:17 59.2 °F 55.4 °F 30 in East 0.9 mph 1 mph 87% 0 in 396 W/m2
10:22 59.7 °F 54.9 °F 30 in Calm     84% 0 in 413 W/m2
10:27 60.1 °F 54.9 °F 30 in Calm   2 mph 83% 0 in 420 W/m2
10:32 60.4 °F 55.2 °F 30 in Calm   2 mph 83% 0 in 434 W/m2
10:37 60.6 °F 55 °F 30 in Calm     82% 0 in 450 W/m2
10:42 61 °F 55 °F 30 in Calm   1 mph 81% 0 in 468 W/m2
10:47 61.3 °F 55 °F 30 in NE 0.9 mph 3 mph 80% 0 in 478 W/m2
10:52 61.9 °F 55.2 °F 30 in ENE 2.9 mph 5 mph 79% 0 in 478 W/m2
10:57 62.4 °F 55.8 °F 30 in NE 4 mph 4 mph 79% 0 in 471 W/m2
11:02 62.8 °F 55.4 °F 30 in ENE 0.9 mph 2 mph 77% 0 in 494 W/m2
11:07 63 °F 55.2 °F 30 in East 2 mph 3 mph 76% 0 in 492 W/m2
11:12 63.1 °F 55.4 °F 30 in ENE 0.9 mph 2 mph 76% 0 in 508 W/m2
11:17 63.3 °F 55.2 °F 30 in ENE 2 mph 3 mph 75% 0 in 533 W/m2
11:22 63.9 °F 56.1 °F 30 in ENE 2.9 mph 3 mph 76% 0 in 552 W/m2
11:27 64.2 °F 56.1 °F 30 in North 2 mph 3 mph 75% 0 in 559 W/m2
11:32 64.8 °F 56.7 °F 30 in NE 0.9 mph 3 mph 75% 0 in 564 W/m2
11:37 65.3 °F 56.8 °F 30 in Calm   2 mph 74% 0 in 585 W/m2
11:42 66 °F 56.7 °F 30 in NE 2 mph 2 mph 72% 0 in 494 W/m2
11:47 66.2 °F 56.5 °F 30 in Calm   3 mph 71% 0 in 452 W/m2
11:52 66.4 °F 57 °F 30 in ENE 0.9 mph 2 mph 72% 0 in 622 W/m2
11:57 66.9 °F 57.2 °F 30 in NE 2 mph 4 mph 71% 0 in 441 W/m2
12:02 67.3 °F 56.8 °F 30 in NNW 0.9 mph 4 mph 69% 0 in 550 W/m2
12:07 67.6 °F 57 °F 30 in East 4 mph 4 mph 69% 0 in 605 W/m2
12:12 68.2 °F 57.6 °F 30 in Calm   4 mph 69% 0 in 647 W/m2
12:17 68.5 °F 57.6 °F 30 in East 0.9 mph 3 mph 68% 0 in 664 W/m2
12:22 69.3 °F 57.4 °F 30 in NNE 2.9 mph 8 mph 66% 0 in 680 W/m2
12:27 69.4 °F 57.2 °F 30 in SE 0.9 mph 3 mph 65% 0 in 638 W/m2
12:33 69.6 °F 55.9 °F 30 in ENE 0.9 mph 4 mph 62% 0 in 689 W/m2
12:38 70.2 °F 56.1 °F 30 in ENE 2 mph 7 mph 61% 0 in 684 W/m2
12:43 70.5 °F 55.9 °F 30 in ENE 4 mph 6 mph 60% 0 in 701 W/m2
12:48 70.9 °F 55.8 °F 30 in ENE 2.9 mph 6 mph 59% 0 in 712 W/m2
12:53 71.1 °F 55.6 °F 30 in NE 2.9 mph 8 mph 58% 0 in 707 W/m2
12:58 71.4 °F 54.5 °F 30 in East 0.9 mph 9 mph 55% 0 in 691 W/m2
13:03 71.6 °F 54.5 °F 30 in NE 6 mph 6 mph 55% 0 in 682 W/m2
13:08 71.6 °F 53.6 °F 30 in East 2.9 mph 8 mph 53% 0 in 717 W/m2
13:13 71.8 °F 54.7 °F 30 in SE 2.9 mph 5 mph 55% 0 in 698 W/m2
13:18 72.1 °F 54.5 °F 30 in NNE 2 mph 4 mph 54% 0 in 719 W/m2
13:23 72.3 °F 55.2 °F 30 in NNE 0.9 mph 3 mph 55% 0 in 707 W/m2
13:28 72.5 °F 54.3 °F 30 in NE 4 mph 5 mph 53% 0 in 691 W/m2
13:33 72.3 °F 53.8 °F 30 in NE 0.9 mph 7 mph 52% 0 in 708 W/m2
13:38 72.3 °F 54.1 °F 30 in SE 0.9 mph 8 mph 53% 0 in 703 W/m2
13:43 72.1 °F 54.5 °F 30 in Calm   4 mph 54% 0 in 689 W/m2
13:48 72.1 °F 54.1 °F 30 in ESE 6.9 mph 8 mph 53% 0 in 698 W/m2
13:53 72.1 °F 55 °F 30 in North 0.9 mph 3 mph 55% 0 in 675 W/m2
13:58 72.7 °F 55 °F 30 in SE 2.9 mph 5 mph 54% 0 in 670 W/m2
14:03 72.9 °F 54.1 °F 30 in NW 2 mph 10 mph 52% 0 in 693 W/m2
14:08 72.9 °F 54.1 °F 30 in North 0.9 mph 6 mph 52% 0 in 686 W/m2
14:13 72.7 °F 55.6 °F 30 in NNE 0.9 mph 10 mph 55% 0 in 707 W/m2
14:18 72.9 °F 55.2 °F 30 in ESE 2 mph 8 mph 54% 0 in 700 W/m2
14:23 72.9 °F 54.1 °F 30 in SSE 0.9 mph 5 mph 52% 0 in 698 W/m2
14:28 73 °F 53.8 °F 30 in SE 2 mph 6 mph 51% 0 in 708 W/m2
14:33 73 °F 53.8 °F 30 in ENE 2.9 mph 6 mph 51% 0 in 710 W/m2
14:38 73 °F 54.9 °F 30 in NNE 0.9 mph 4 mph 53% 0 in 733 W/m2
14:43 73.4 °F 55.2 °F 30 in NNW 0.9 mph 5 mph 53% 0 in 733 W/m2
14:48 73.8 °F 53.4 °F 30 in NE 0.9 mph 4 mph 49% 0 in 722 W/m2
14:53 73.9 °F 54.1 °F 30 in East 0.9 mph 4 mph 50% 0 in 619 W/m2
14:58 74.1 °F 54.9 °F 30 in ESE 2 mph 4 mph 51% 0 in 606 W/m2
15:03 74.1 °F 53.8 °F 29.9 in SSW 4 mph 9 mph 49% 0 in 670 W/m2
15:08 74.1 °F 53.2 °F 29.9 in NE 2 mph 7 mph 48% 0 in 703 W/m2
15:13 74.5 °F 54.7 °F 29.9 in ENE 2.9 mph 4 mph 50% 0 in 689 W/m2
15:18 74.7 °F 54.9 °F 29.9 in NE 4 mph 4 mph 50% 0 in 594 W/m2
15:23 74.5 °F 55.2 °F 29.9 in Calm   2 mph 51% 0 in 483 W/m2
15:28 74.5 °F 54.1 °F 29.9 in NNW 0.9 mph 3 mph 49% 0 in 367 W/m2
15:33 74.1 °F 53.8 °F 29.9 in ESE 0.9 mph 4 mph 49% 0 in 420 W/m2
15:38 73.9 °F 54.1 °F 29.9 in NE 0.9 mph 3 mph 50% 0 in 279 W/m2
15:43 73.6 °F 53.8 °F 29.9 in East 2.9 mph 4 mph 50% 0 in 348 W/m2
15:48 73.2 °F 53.4 °F 29.9 in East 2 mph 5 mph 50% 0 in 352 W/m2
15:53 72.9 °F 53.1 °F 29.9 in East 2 mph 8 mph 50% 0 in 299 W/m2
15:58 72.7 °F 53.4 °F 29.9 in East 2 mph 4 mph 51% 0 in 237 W/m2
16:03 72.3 °F 54.1 °F 29.9 in ESE 2 mph 8 mph 53% 0 in 211 W/m2
16:08 72 °F 54 °F 29.9 in East 0.9 mph 2 mph 53% 0 in 218 W/m2
16:13 71.8 °F 54.7 °F 29.9 in Calm   4 mph 55% 0 in 232 W/m2
16:18 71.4 °F 55.9 °F 29.9 in Calm   1 mph 58% 0 in 250 W/m2
16:23 71.2 °F 56.1 °F 29.9 in Calm     59% 0 in 246 W/m2
16:28 71.1 °F 55.9 °F 29.9 in SSE 0.9 mph 1 mph 59% 0 in 272 W/m2
16:33 71.1 °F 56.5 °F 29.9 in Calm   1 mph 60% 0 in 309 W/m2
16:38 71.1 °F 56.5 °F 29.9 in Calm   1 mph 60% 0 in 355 W/m2
16:43 71.2 °F 56.1 °F 29.9 in West 0.9 mph 3 mph 59% 0 in 339 W/m2
16:48 71.6 °F 56.1 °F 29.9 in Calm   2 mph 58% 0 in 304 W/m2
16:53 71.8 °F 55.8 °F 29.9 in Calm   3 mph 57% 0 in 236 W/m2
16:58 72 °F 54.3 °F 29.9 in ESE 0.9 mph 4 mph 54% 0 in 218 W/m2
17:03 72 °F 55.4 °F 29.9 in ENE 0.9 mph 2 mph 56% 0 in 271 W/m2
17:08 72 °F 55.9 °F 29.9 in NNW 0.9 mph 3 mph 57% 0 in 204 W/m2
17:13 71.6 °F 55.6 °F 29.9 in West 0.9 mph 3 mph 57% 0 in 137 W/m2
17:18 71.2 °F 56.7 °F 29.9 in ENE 0.9 mph 3 mph 60% 0 in 100 W/m2
17:23 70.9 °F 56.3 °F 29.9 in Calm   1 mph 60% 0 in 120 W/m2
17:28 70.3 °F 56.3 °F 29.9 in SW 2 mph 3 mph 61% 0 in 192 W/m2
17:33 70.2 °F 56.1 °F 29.9 in Calm   2 mph 61% 0 in 216 W/m2
17:38 70.2 °F 56.5 °F 29.9 in Calm     62% 0 in 230 W/m2
17:43 70.2 °F 55.6 °F 29.9 in Calm   3 mph 60% 0 in 167 W/m2
17:48 70.2 °F 55.6 °F 29.9 in ENE 0.9 mph 3 mph 60% 0 in 130 W/m2
17:53 70.2 °F 57 °F 29.9 in Calm   1 mph 63% 0 in 151 W/m2
17:58 70 °F 56.8 °F 29.9 in Calm     63% 0 in 98 W/m2
18:03 69.4 °F 56.3 °F 29.9 in Calm   1 mph 63% 0 in 107 W/m2
18:08 69.1 °F 55.9 °F 29.9 in SSE 0.9 mph 4 mph 63% 0 in 100 W/m2
18:13 68.7 °F 56.1 °F 29.9 in Calm   1 mph 64% 0 in 97 W/m2
18:18 68.5 °F 56.3 °F 29.9 in WNW 0.9 mph 4 mph 65% 0 in 95 W/m2
18:23 68.4 °F 55.8 °F 29.9 in SW 0.9 mph 2 mph 64% 0 in 97 W/m2
18:28 68.2 °F 55.9 °F 29.9 in ENE 0.9 mph 3 mph 65% 0 in 91 W/m2
18:33 68.2 °F 56.3 °F 29.9 in Calm     66% 0 in 90 W/m2
18:38 67.8 °F 56.1 °F 29.9 in SE 0.9 mph 1 mph 66% 0 in 91 W/m2
18:43 67.6 °F 56.3 °F 29.9 in Calm     67% 0 in 90 W/m2
18:48 67.5 °F 55.8 °F 29.9 in SE 0.9 mph 2 mph 66% 0 in 54 W/m2
18:53 66.9 °F 55.6 °F 29.9 in SE 0.9 mph 1 mph 67% 0 in 47 W/m2
18:58 66.6 °F 56.1 °F 29.9 in Calm   2 mph 69% 0 in 42 W/m2
19:03 66 °F 55.9 °F 29.9 in SE 0.9 mph 1 mph 70% 0 in 39 W/m2
19:08 65.7 °F 55.6 °F 29.9 in Calm   2 mph 70% 0 in 33 W/m2
19:13 65.3 °F 55.6 °F 29.9 in Calm   1 mph 71% 0 in 30 W/m2
19:18 64.9 °F 55.4 °F 29.9 in Calm   2 mph 71% 0 in 26 W/m2
19:23 64.8 °F 55.6 °F 29.9 in Calm     72% 0 in 19 W/m2
19:28 64.6 °F 55.4 °F 29.9 in Calm   1 mph 72% 0 in 14 W/m2
19:33 64.2 °F 55.4 °F 29.9 in Calm     73% 0 in 9 W/m2
19:38 63.9 °F 54.7 °F 29.9 in Calm     72% 0 in 7 W/m2
19:44 63.7 °F 54.5 °F 29.9 in SE 0.9 mph 2 mph 72% 0 in 0 W/m2
19:49 63.3 °F 54.5 °F 29.9 in SE 0.9 mph 1 mph 73% 0 in 0 W/m2
19:54 63.1 °F 54.3 °F 29.9 in SE 0.9 mph 1 mph 73% 0 in 0 W/m2
19:59 63 °F 54.1 °F 29.9 in Calm     73% 0 in 0 W/m2
20:04 62.6 °F 54.1 °F 29.9 in Calm     74% 0 in 0 W/m2
20:09 62.2 °F 53.8 °F 29.9 in Calm     74% 0 in 0 W/m2
20:14 62.1 °F 54 °F 29.9 in Calm     75% 0 in 0 W/m2
20:19 61.9 °F 53.8 °F 29.9 in Calm     75% 0 in 0 W/m2
20:24 61.5 °F 54 °F 29.9 in Calm     76% 0 in 0 W/m2
20:29 61.2 °F 53.6 °F 29.9 in Calm     76% 0 in 0 W/m2
20:34 61 °F 54.1 °F 29.9 in Calm     78% 0 in 0 W/m2
20:39 60.6 °F 53.8 °F 29.9 in Calm   1 mph 78% 0 in 0 W/m2
20:44 60.4 °F 53.6 °F 29.9 in SE 0.9 mph 2 mph 78% 0 in 0 W/m2
20:49 60.3 °F 53.8 °F 29.9 in Calm   1 mph 79% 0 in 0 W/m2
20:54 60.1 °F 53.6 °F 29.9 in Calm     79% 0 in 0 W/m2
20:59 59.9 °F 54.1 °F 29.9 in Calm   1 mph 81% 0 in 0 W/m2
21:04 59.7 °F 54 °F 29.9 in Calm     81% 0 in 0 W/m2
21:09 59.5 °F 54 °F 29.9 in Calm   1 mph 82% 0 in 0 W/m2
21:14 59.4 °F 54.1 °F 29.9 in SE 0.9 mph 2 mph 83% 0 in 0 W/m2
21:19 59.2 °F 54 °F 29.9 in SE 0.9 mph 2 mph 83% 0 in 0 W/m2
21:24 59 °F 53.8 °F 29.9 in Calm   1 mph 83% 0 in 0 W/m2
21:29 58.8 °F 54 °F 29.9 in Calm     84% 0 in 0 W/m2
21:34 58.6 °F 53.8 °F 29.9 in Calm     84% 0 in 0 W/m2
21:39 58.5 °F 54 °F 29.9 in Calm     85% 0 in 0 W/m2
21:44 58.3 °F 53.8 °F 29.9 in Calm     85% 0 in 0 W/m2
21:49 58.3 °F 54.1 °F 29.9 in Calm     86% 0 in 0 W/m2
21:54 58.3 °F 54.1 °F 29.9 in Calm     86% 0 in 0 W/m2
21:59 57.9 °F 53.8 °F 29.9 in Calm     86% 0 in 0 W/m2
22:04 57.9 °F 53.8 °F 29.9 in Calm     86% 0 in 0 W/m2
22:09 57.7 °F 54 °F 29.9 in Calm     87% 0 in 0 W/m2
22:14 57.6 °F 53.8 °F 29.9 in Calm     87% 0 in 0 W/m2
22:19 57.4 °F 53.6 °F 29.9 in Calm   2 mph 87% 0 in 0 W/m2
22:24 57.4 °F 53.8 °F 29.9 in Calm   2 mph 88% 0 in 0 W/m2
22:29 57.4 °F 53.8 °F 29.9 in Calm     88% 0 in 0 W/m2
22:34 57.2 °F 54 °F 29.9 in Calm   2 mph 89% 0 in 0 W/m2
22:39 57.2 °F 53.6 °F 29.9 in Calm     88% 0 in 0 W/m2
22:44 57.2 °F 54 °F 29.9 in Calm   1 mph 89% 0 in 0 W/m2
22:49 57 °F 53.8 °F 29.9 in Calm     89% 0 in 0 W/m2
22:54 57 °F 53.8 °F 29.9 in Calm     89% 0 in 0 W/m2
22:59 56.8 °F 53.6 °F 29.9 in Calm   2 mph 89% 0 in 0 W/m2
23:04 56.8 °F 53.6 °F 29.9 in Calm   1 mph 89% 0 in 0 W/m2
23:09 56.7 °F 53.4 °F 29.9 in Calm   2 mph 89% 0 in 0 W/m2
23:14 56.8 °F 53.6 °F 29.9 in SE 0.9 mph 1 mph 89% 0 in 0 W/m2
23:19 56.7 °F 53.4 °F 29.9 in SE 0.9 mph 2 mph 89% 0 in 0 W/m2
23:24 56.7 °F 53.4 °F 29.9 in SE 0.9 mph 2 mph 89% 0 in 0 W/m2
23:29 56.7 °F 53.4 °F 29.9 in Calm   1 mph 89% 0 in 0 W/m2
23:34 56.5 °F 53.2 °F 29.9 in SE 0.9 mph 2 mph 89% 0 in 0 W/m2
23:39 56.5 °F 53.2 °F 29.9 in Calm     89% 0 in 0 W/m2
23:44 56.3 °F 53.1 °F 29.9 in Calm     89% 0 in 0 W/m2
23:49 56.3 °F 53.4 °F 29.9 in Calm   1 mph 90% 0 in 0 W/m2
23:54 56.1 °F 53.2 °F 29.9 in Calm     90% 0 in 0 W/m2
23:59 56.1 °F 53.2 °F 29.9 in Calm     90% 0 in 0 W/m2
Juneau County Weather
Compliments of Weather Underground - 4 mb